createdAt,value
2019-03-31T00:01:07.312Z,8.90
2019-03-31T00:03:24.357Z,8.86
2019-03-31T00:05:53.902Z,8.74
2019-03-31T00:08:23.446Z,8.66
2019-03-31T00:10:52.893Z,8.72
2019-03-31T00:13:22.319Z,8.89
2019-03-31T00:15:51.877Z,8.96
2019-03-31T00:18:21.740Z,9.01
2019-03-31T00:20:51.259Z,8.96
2019-03-31T00:23:20.715Z,9.06
2019-03-31T00:25:52.626Z,9.06
2019-03-31T00:28:22.448Z,9.15
2019-03-31T00:30:53.406Z,9.29
2019-03-31T00:33:23.078Z,9.40
2019-03-31T00:35:52.590Z,9.29
2019-03-31T00:38:22.025Z,9.06
2019-03-31T00:40:51.508Z,8.93
2019-03-31T00:43:21.024Z,8.75
2019-03-31T00:45:50.436Z,8.62
2019-03-31T00:48:19.957Z,8.95
2019-03-31T00:50:49.278Z,9.04
2019-03-31T00:53:18.882Z,8.75
2019-03-31T00:55:48.321Z,8.52
2019-03-31T00:58:17.840Z,8.41
2019-03-31T01:01:05.531Z,8.28
2019-03-31T01:03:35.706Z,8.17
2019-03-31T01:06:05.882Z,8.72
2019-03-31T01:08:36.458Z,8.87
2019-03-31T01:11:15.421Z,8.75
2019-03-31T01:13:45.724Z,8.45
2019-03-31T01:16:16.082Z,8.32
2019-03-31T01:18:45.612Z,8.13
2019-03-31T01:21:15.429Z,8.06
2019-03-31T01:23:45.503Z,7.93
2019-03-31T01:26:17.728Z,7.84
2019-03-31T01:28:47.342Z,7.84
2019-03-31T01:31:16.921Z,8.02
2019-03-31T01:33:46.449Z,7.84
2019-03-31T01:36:16.823Z,8.08
2019-03-31T01:38:46.271Z,8.21
2019-03-31T01:41:15.995Z,8.16
2019-03-31T01:43:45.586Z,8.16
2019-03-31T01:46:18.437Z,8.21
2019-03-31T01:48:47.843Z,8.19
2019-03-31T01:51:17.262Z,8.13
2019-03-31T01:53:46.892Z,8.03
2019-03-31T01:56:16.675Z,7.98
2019-03-31T01:58:46.107Z,7.84
2019-03-31T02:01:16.529Z,7.53
2019-03-31T02:03:45.945Z,7.63
2019-03-31T02:06:15.832Z,7.50
2019-03-31T02:08:45.254Z,7.45
2019-03-31T02:11:14.644Z,7.33
2019-03-31T02:13:44.059Z,7.54
2019-03-31T02:16:13.563Z,7.72
2019-03-31T02:18:43.123Z,7.57
2019-03-31T02:21:12.515Z,7.50
2019-03-31T02:23:41.962Z,7.55
2019-03-31T02:26:11.508Z,7.47
2019-03-31T02:28:40.940Z,7.52
2019-03-31T02:31:10.595Z,7.49
2019-03-31T02:33:40.110Z,7.54
2019-03-31T02:36:10.149Z,7.51
2019-03-31T02:38:39.712Z,7.45
2019-03-31T02:41:09.220Z,7.45
2019-03-31T02:43:38.774Z,7.44
2019-03-31T02:46:08.237Z,7.48
2019-03-31T02:48:37.747Z,7.29
2019-03-31T02:51:07.440Z,7.27
2019-03-31T02:53:36.984Z,7.28
2019-03-31T02:56:06.978Z,7.21
2019-03-31T02:58:37.476Z,7.24
2019-03-31T03:01:07.659Z,7.31
2019-03-31T03:03:39.410Z,7.20
2019-03-31T03:06:12.351Z,6.97
2019-03-31T03:08:44.984Z,6.72
2019-03-31T03:11:17.528Z,6.49
2019-03-31T03:13:49.892Z,6.36
2019-03-31T03:16:22.931Z,6.36
2019-03-31T03:18:52.590Z,6.31
2019-03-31T03:21:24.821Z,6.22
2019-03-31T03:23:53.656Z,6.15
2019-03-31T03:26:23.383Z,6.27
2019-03-31T03:28:53.000Z,6.28
2019-03-31T03:31:22.617Z,6.35
2019-03-31T03:33:52.219Z,6.35
2019-03-31T03:36:21.801Z,6.29
2019-03-31T03:38:51.361Z,6.20
2019-03-31T03:41:20.975Z,6.13
2019-03-31T03:43:56.130Z,6.06
2019-03-31T03:46:21.457Z,6.16
2019-03-31T03:48:51.047Z,6.16
2019-03-31T03:51:20.576Z,6.01
2019-03-31T03:53:49.998Z,6.02
2019-03-31T03:56:19.498Z,5.95
2019-03-31T03:58:48.892Z,5.86
2019-03-31T04:01:22.981Z,5.72
2019-03-31T04:03:52.397Z,5.67
2019-03-31T04:06:21.801Z,5.77
2019-03-31T04:08:51.387Z,5.81
2019-03-31T04:11:28.241Z,5.77
2019-03-31T04:13:58.117Z,5.83
2019-03-31T04:16:27.798Z,5.89
2019-03-31T04:18:57.653Z,5.88
2019-03-31T04:21:27.535Z,6.12
2019-03-31T04:23:57.711Z,6.36
2019-03-31T04:26:27.136Z,6.48
2019-03-31T04:28:56.639Z,6.38
2019-03-31T04:31:26.059Z,6.22
2019-03-31T04:33:55.642Z,6.06
2019-03-31T04:36:25.169Z,5.98
2019-03-31T04:38:54.623Z,5.73
2019-03-31T04:41:23.987Z,5.61
2019-03-31T04:43:53.482Z,5.60
2019-03-31T04:46:23.019Z,5.54
2019-03-31T04:48:52.628Z,5.49
2019-03-31T04:51:22.123Z,5.40
2019-03-31T04:53:51.699Z,5.29
2019-03-31T04:56:21.361Z,5.15
2019-03-31T04:58:50.913Z,5.01
2019-03-31T05:01:20.435Z,4.92
2019-03-31T05:04:03.785Z,4.90
2019-03-31T05:06:21.363Z,4.96
2019-03-31T05:08:50.792Z,4.96
2019-03-31T05:11:20.293Z,5.02
2019-03-31T05:13:49.821Z,5.01
2019-03-31T05:16:19.360Z,5.03
2019-03-31T05:18:48.882Z,5.11
2019-03-31T05:21:18.399Z,5.06
2019-03-31T05:23:47.922Z,5.02
2019-03-31T05:26:17.520Z,5.03
2019-03-31T05:28:47.089Z,5.08
2019-03-31T05:31:16.533Z,5.16
2019-03-31T05:33:45.935Z,5.40
2019-03-31T05:36:15.503Z,5.88
2019-03-31T05:38:44.882Z,5.78
2019-03-31T05:41:14.313Z,5.70
2019-03-31T05:43:43.832Z,5.61
2019-03-31T05:46:13.307Z,5.63
2019-03-31T05:48:42.774Z,5.70
2019-03-31T05:51:12.073Z,5.68
2019-03-31T05:53:41.548Z,5.82
2019-03-31T05:56:11.160Z,5.96
2019-03-31T05:58:40.702Z,6.13
2019-03-31T06:01:10.161Z,6.20
2019-03-31T06:03:39.651Z,6.13
2019-03-31T06:06:09.103Z,6.27
2019-03-31T06:08:38.510Z,6.36
2019-03-31T06:11:08.432Z,6.48
2019-03-31T06:13:37.939Z,6.51
2019-03-31T06:16:07.370Z,6.63
2019-03-31T06:18:36.776Z,6.69
2019-03-31T06:21:06.292Z,6.84
2019-03-31T06:23:35.825Z,7.06
2019-03-31T06:26:05.315Z,7.10
2019-03-31T06:28:34.791Z,7.04
2019-03-31T06:31:04.376Z,7.15
2019-03-31T06:33:34.701Z,7.47
2019-03-31T06:36:04.252Z,7.72
2019-03-31T06:38:33.732Z,7.63
2019-03-31T06:41:03.526Z,7.92
2019-03-31T06:43:32.961Z,7.89
2019-03-31T06:46:02.696Z,8.21
2019-03-31T06:48:32.139Z,8.66
2019-03-31T06:51:01.607Z,8.99
2019-03-31T06:53:31.115Z,9.19
2019-03-31T06:56:00.557Z,9.41
2019-03-31T06:58:30.872Z,9.33
2019-03-31T07:01:00.503Z,9.32
2019-03-31T07:03:30.022Z,9.63
2019-03-31T07:05:59.535Z,9.65
2019-03-31T07:08:29.101Z,9.61
2019-03-31T07:10:58.521Z,9.62
2019-03-31T07:13:27.949Z,9.59
2019-03-31T07:15:57.338Z,9.65
2019-03-31T07:18:26.675Z,9.57
2019-03-31T07:20:56.165Z,9.63
2019-03-31T07:23:25.807Z,9.77
2019-03-31T07:25:55.327Z,9.84
2019-03-31T07:28:24.795Z,9.87
2019-03-31T07:30:54.728Z,10.07
2019-03-31T07:33:24.208Z,10.33
2019-03-31T07:35:53.498Z,10.31
2019-03-31T07:38:22.990Z,10.53
2019-03-31T07:40:52.667Z,10.61
2019-03-31T07:43:22.084Z,10.57
2019-03-31T07:45:51.565Z,10.64
2019-03-31T07:48:20.976Z,10.70
2019-03-31T07:50:50.406Z,10.69
2019-03-31T07:53:19.796Z,10.84
2019-03-31T07:55:49.383Z,10.98
2019-03-31T07:58:18.961Z,11.14
2019-03-31T08:00:48.437Z,11.34
2019-03-31T08:03:18.019Z,11.64
2019-03-31T08:05:47.689Z,11.83
2019-03-31T08:08:17.063Z,12.04
2019-03-31T08:10:46.702Z,12.10
2019-03-31T08:13:16.534Z,12.32
2019-03-31T08:15:46.168Z,12.52
2019-03-31T08:18:15.499Z,12.32
2019-03-31T08:20:44.976Z,12.48
2019-03-31T08:23:14.368Z,12.53
2019-03-31T08:25:43.714Z,12.52
2019-03-31T08:28:13.308Z,12.53
2019-03-31T08:30:42.800Z,12.56
2019-03-31T08:33:12.107Z,12.70
2019-03-31T08:35:47.746Z,12.74
2019-03-31T08:38:12.703Z,12.89
2019-03-31T08:40:42.275Z,13.10
2019-03-31T08:43:11.682Z,13.22
2019-03-31T08:45:41.080Z,13.33
2019-03-31T08:48:10.533Z,13.25
2019-03-31T08:50:40.012Z,13.37
2019-03-31T08:53:09.530Z,13.59
2019-03-31T08:55:38.991Z,13.86
2019-03-31T08:58:08.500Z,13.86
2019-03-31T09:00:42.398Z,13.88
2019-03-31T09:03:11.887Z,14.23
2019-03-31T09:05:41.410Z,14.24
2019-03-31T09:08:10.912Z,14.48
2019-03-31T09:10:40.476Z,14.64
2019-03-31T09:13:09.902Z,14.40
2019-03-31T09:15:39.428Z,14.57
2019-03-31T09:18:08.836Z,14.60
2019-03-31T09:20:38.228Z,14.67
2019-03-31T09:23:07.756Z,14.72
2019-03-31T09:25:37.174Z,14.80
2019-03-31T09:28:06.592Z,14.98
2019-03-31T09:30:35.983Z,14.92
2019-03-31T09:33:05.630Z,15.13
2019-03-31T09:35:35.071Z,15.38
2019-03-31T09:38:04.588Z,15.50
2019-03-31T09:40:34.124Z,15.70
2019-03-31T09:43:03.684Z,15.93
2019-03-31T09:45:33.168Z,15.98
2019-03-31T09:48:02.790Z,16.06
2019-03-31T09:50:32.272Z,16.22
2019-03-31T09:53:01.806Z,16.29
2019-03-31T09:55:31.211Z,16.24
2019-03-31T09:58:00.554Z,16.41
2019-03-31T10:00:49.751Z,16.55
2019-03-31T10:03:19.366Z,16.58
2019-03-31T10:05:48.890Z,16.54
2019-03-31T10:08:21.752Z,16.71
2019-03-31T10:10:49.651Z,16.84
2019-03-31T10:13:19.246Z,16.98
2019-03-31T10:15:48.803Z,16.95
2019-03-31T10:18:18.564Z,16.98
2019-03-31T10:20:48.156Z,16.96
2019-03-31T10:23:17.675Z,17.07
2019-03-31T10:25:47.154Z,17.11
2019-03-31T10:28:16.693Z,17.42
2019-03-31T10:30:46.226Z,17.58
2019-03-31T10:33:15.760Z,17.60
2019-03-31T10:35:45.208Z,17.71
2019-03-31T10:38:14.884Z,17.77
2019-03-31T10:40:44.680Z,17.85
2019-03-31T10:43:14.129Z,18.12
2019-03-31T10:45:43.636Z,18.22
2019-03-31T10:48:20.398Z,18.19
2019-03-31T10:50:44.457Z,18.27
2019-03-31T10:53:14.111Z,18.28
2019-03-31T10:55:43.458Z,18.38
2019-03-31T10:58:12.991Z,18.60
2019-03-31T11:00:44.505Z,18.71
2019-03-31T11:03:13.497Z,18.73
2019-03-31T11:05:43.030Z,18.76
2019-03-31T11:08:12.584Z,18.88
2019-03-31T11:10:42.130Z,18.99
2019-03-31T11:13:11.781Z,19.16
2019-03-31T11:15:41.670Z,19.30
2019-03-31T11:18:11.100Z,19.44
2019-03-31T11:20:40.579Z,19.43
2019-03-31T11:23:17.625Z,19.33
2019-03-31T11:25:47.012Z,19.42
2019-03-31T11:28:16.416Z,19.29
2019-03-31T11:30:45.949Z,19.39
2019-03-31T11:33:15.511Z,19.59
2019-03-31T11:35:45.011Z,19.67
2019-03-31T11:38:14.971Z,19.74
2019-03-31T11:40:44.532Z,19.95
2019-03-31T11:43:14.161Z,20.10
2019-03-31T11:45:43.605Z,20.39
2019-03-31T11:48:13.141Z,20.63
2019-03-31T11:50:42.503Z,21.16
2019-03-31T11:53:12.132Z,20.80
2019-03-31T11:55:41.646Z,20.83
2019-03-31T11:58:11.183Z,21.18
2019-03-31T12:00:47.198Z,21.39
2019-03-31T12:03:16.732Z,21.24
2019-03-31T12:05:46.176Z,21.30
2019-03-31T12:08:15.715Z,21.50
2019-03-31T12:10:45.123Z,21.52
2019-03-31T12:13:14.636Z,21.35
2019-03-31T12:15:43.996Z,21.12
2019-03-31T12:18:13.510Z,20.91
2019-03-31T12:20:43.004Z,20.94
2019-03-31T12:23:12.435Z,20.46
2019-03-31T12:25:41.753Z,20.58
2019-03-31T12:28:11.441Z,20.54
2019-03-31T12:30:40.829Z,20.44
2019-03-31T12:33:10.476Z,20.43
2019-03-31T12:35:39.936Z,20.32
2019-03-31T12:38:10.472Z,20.35
2019-03-31T12:40:40.614Z,20.25
2019-03-31T12:43:11.113Z,20.36
2019-03-31T12:45:43.151Z,20.15
2019-03-31T12:48:11.940Z,20.27
2019-03-31T12:50:41.340Z,20.50
2019-03-31T12:53:10.739Z,20.37
2019-03-31T12:55:40.195Z,20.27
2019-03-31T12:58:09.633Z,20.15
2019-03-31T13:00:39.021Z,20.01
2019-03-31T13:03:08.536Z,20.08
2019-03-31T13:05:37.995Z,20.29
2019-03-31T13:08:07.475Z,20.50
2019-03-31T13:10:37.000Z,20.49
2019-03-31T13:13:06.729Z,20.39
2019-03-31T13:15:36.247Z,20.16
2019-03-31T13:18:06.161Z,20.51
2019-03-31T13:20:35.671Z,20.45
2019-03-31T13:23:05.175Z,20.69
2019-03-31T13:25:34.729Z,20.65
2019-03-31T13:28:05.823Z,20.94
2019-03-31T13:30:35.616Z,21.08
2019-03-31T13:33:05.177Z,21.03
2019-03-31T13:35:34.592Z,21.63
2019-03-31T13:38:11.058Z,21.86
2019-03-31T13:40:35.403Z,21.86
2019-03-31T13:43:05.043Z,22.54
2019-03-31T13:45:34.498Z,22.48
2019-03-31T13:48:04.124Z,23.16
2019-03-31T13:50:33.582Z,22.45
2019-03-31T13:53:03.133Z,22.97
2019-03-31T13:55:32.557Z,23.20
2019-03-31T13:58:03.317Z,23.43
2019-03-31T14:00:38.066Z,23.67
2019-03-31T14:03:07.656Z,24.21
2019-03-31T14:05:37.146Z,24.10
2019-03-31T14:08:06.888Z,24.53
2019-03-31T14:10:36.333Z,24.89
2019-03-31T14:13:06.204Z,24.71
2019-03-31T14:15:35.761Z,24.60
2019-03-31T14:18:05.520Z,24.41
2019-03-31T14:20:39.582Z,24.49
2019-03-31T14:23:17.410Z,24.92
2019-03-31T14:25:47.540Z,25.50
2019-03-31T14:28:20.238Z,25.56
2019-03-31T14:30:49.913Z,26.08
2019-03-31T14:33:21.207Z,25.50
2019-03-31T14:35:51.480Z,24.59
2019-03-31T14:38:40.523Z,24.82
2019-03-31T14:41:00.743Z,23.38
2019-03-31T14:43:33.904Z,21.84
2019-03-31T14:46:06.024Z,21.49
2019-03-31T14:48:40.586Z,21.05
2019-03-31T14:51:10.244Z,21.47
2019-03-31T14:53:41.272Z,21.07
2019-03-31T14:56:14.870Z,21.23
2019-03-31T14:58:45.468Z,21.87
2019-03-31T15:01:21.112Z,22.21
2019-03-31T15:03:49.893Z,21.42
2019-03-31T15:06:21.148Z,21.02
2019-03-31T15:08:54.474Z,20.39
2019-03-31T15:11:28.079Z,19.93
2019-03-31T15:13:58.569Z,19.65
2019-03-31T15:16:31.907Z,18.19
2019-03-31T15:19:06.818Z,17.43
2019-03-31T15:21:43.920Z,17.18
2019-03-31T15:24:13.837Z,17.30
2019-03-31T15:26:49.896Z,17.41
2019-03-31T15:29:29.214Z,16.93
2019-03-31T15:32:01.456Z,16.69
2019-03-31T15:34:32.763Z,16.14
2019-03-31T15:37:04.700Z,15.69
2019-03-31T15:39:34.919Z,15.48
2019-03-31T15:42:08.055Z,15.27
2019-03-31T15:44:40.971Z,15.13
2019-03-31T15:47:12.807Z,15.14
2019-03-31T15:49:43.712Z,15.01
2019-03-31T15:52:14.855Z,15.09
2019-03-31T15:54:46.513Z,15.13
2019-03-31T15:57:17.350Z,15.29
2019-03-31T15:59:54.719Z,15.32
2019-03-31T16:02:27.414Z,15.41
2019-03-31T16:04:57.648Z,15.33
2019-03-31T16:07:29.379Z,15.26
2019-03-31T16:09:58.929Z,15.35
2019-03-31T16:12:28.525Z,15.40
2019-03-31T16:14:58.750Z,15.45
2019-03-31T16:17:28.212Z,15.51
2019-03-31T16:19:57.823Z,15.62
2019-03-31T16:22:27.082Z,15.58
2019-03-31T16:24:57.892Z,15.67
2019-03-31T16:27:34.793Z,15.51
2019-03-31T16:30:07.548Z,15.41
2019-03-31T16:32:41.355Z,15.59
2019-03-31T16:35:11.605Z,15.53
2019-03-31T16:37:40.488Z,15.28
2019-03-31T16:40:09.449Z,15.46
2019-03-31T16:42:38.423Z,15.57
2019-03-31T16:45:07.574Z,15.60
2019-03-31T16:47:36.569Z,15.45
2019-03-31T16:50:05.922Z,15.23
2019-03-31T16:52:34.655Z,15.26
2019-03-31T16:55:04.038Z,15.23
2019-03-31T16:57:32.971Z,15.26
2019-03-31T17:00:01.863Z,15.24
2019-03-31T17:02:30.655Z,15.18
2019-03-31T17:04:59.778Z,15.18
2019-03-31T17:07:28.634Z,15.07
2019-03-31T17:09:57.413Z,14.89
2019-03-31T17:12:26.286Z,14.94
2019-03-31T17:14:55.235Z,14.72
2019-03-31T17:17:24.151Z,14.69
2019-03-31T17:19:53.074Z,14.61
2019-03-31T17:22:22.088Z,14.58
2019-03-31T17:24:51.013Z,14.68
2019-03-31T17:27:19.876Z,14.51
2019-03-31T17:29:48.745Z,14.40
2019-03-31T17:32:17.610Z,14.42
2019-03-31T17:34:46.596Z,14.39
2019-03-31T17:37:15.589Z,14.28
2019-03-31T17:39:44.613Z,14.25
2019-03-31T17:42:13.484Z,14.31
2019-03-31T17:44:42.419Z,14.15
2019-03-31T17:47:11.510Z,14.18
2019-03-31T17:49:40.324Z,14.05
2019-03-31T17:52:09.355Z,14.00
2019-03-31T17:54:38.338Z,14.05
2019-03-31T17:57:07.199Z,14.01
2019-03-31T17:59:36.142Z,13.85
2019-03-31T18:02:05.158Z,13.75
2019-03-31T18:04:34.070Z,13.67
2019-03-31T18:07:03.091Z,13.63
2019-03-31T18:09:31.993Z,13.53
2019-03-31T18:12:00.800Z,13.46
2019-03-31T18:14:29.774Z,13.43
2019-03-31T18:16:58.676Z,13.42
2019-03-31T18:19:27.528Z,13.29
2019-03-31T18:21:56.638Z,13.30
2019-03-31T18:24:25.586Z,13.22
2019-03-31T18:26:54.380Z,13.09
2019-03-31T18:29:23.317Z,13.01
2019-03-31T18:31:52.327Z,12.94
2019-03-31T18:34:21.131Z,13.00
2019-03-31T18:36:50.141Z,12.83
2019-03-31T18:39:19.068Z,12.82
2019-03-31T18:41:47.890Z,12.72
2019-03-31T18:44:16.803Z,12.57
2019-03-31T18:46:45.768Z,12.51
2019-03-31T18:49:14.635Z,12.46
2019-03-31T18:51:43.559Z,12.40
2019-03-31T18:54:37.409Z,12.39
2019-03-31T18:57:14.361Z,12.28
2019-03-31T19:00:00.911Z,12.12
2019-03-31T19:02:54.129Z,12.05
2019-03-31T19:05:35.443Z,11.97
2019-03-31T19:08:32.152Z,11.91
2019-03-31T19:11:29.393Z,11.87
2019-03-31T19:14:16.222Z,11.76
2019-03-31T19:16:57.823Z,11.74
2019-03-31T19:19:33.654Z,11.75
2019-03-31T19:22:21.923Z,11.71
2019-03-31T19:25:18.764Z,11.71
2019-03-31T19:28:09.749Z,11.64
2019-03-31T19:30:54.681Z,11.62
2019-03-31T19:33:42.623Z,11.55
2019-03-31T19:36:29.532Z,11.39
2019-03-31T19:39:18.625Z,11.32
2019-03-31T19:42:06.633Z,11.26
2019-03-31T19:45:09.881Z,11.21
2019-03-31T19:47:48.149Z,11.16
2019-03-31T19:50:38.957Z,11.19
2019-03-31T19:53:26.895Z,11.13
2019-03-31T19:56:13.775Z,11.03
2019-03-31T19:59:03.002Z,10.99
2019-03-31T20:01:50.848Z,10.91
2019-03-31T20:04:41.421Z,10.91
2019-03-31T20:07:32.536Z,10.86
2019-03-31T20:10:20.419Z,10.74
2019-03-31T20:13:00.666Z,10.69
2019-03-31T20:15:54.503Z,10.75
2019-03-31T20:18:34.596Z,10.70
2019-03-31T20:21:31.835Z,10.62
2019-03-31T20:24:19.218Z,10.57
2019-03-31T20:26:57.626Z,10.62
2019-03-31T20:29:44.340Z,10.51
2019-03-31T20:32:24.151Z,10.53
2019-03-31T20:35:08.114Z,10.42
2019-03-31T20:37:56.001Z,10.45
2019-03-31T20:40:36.812Z,10.42
2019-03-31T20:43:19.375Z,10.90
2019-03-31T20:45:48.332Z,11.09
2019-03-31T20:48:17.199Z,11.14
2019-03-31T20:50:46.107Z,10.96
2019-03-31T20:53:14.943Z,10.70
2019-03-31T20:55:43.723Z,10.51
2019-03-31T20:58:12.606Z,10.41
2019-03-31T21:00:41.611Z,10.32
2019-03-31T21:03:10.568Z,10.25
2019-03-31T21:05:39.466Z,10.29
2019-03-31T21:08:08.264Z,10.26
2019-03-31T21:10:37.252Z,10.21
2019-03-31T21:13:06.157Z,10.17
2019-03-31T21:15:35.149Z,10.16
2019-03-31T21:18:04.232Z,10.07
2019-03-31T21:20:33.229Z,9.88
2019-03-31T21:23:01.991Z,9.95
2019-03-31T21:25:30.845Z,10.00
2019-03-31T21:27:59.880Z,9.90
2019-03-31T21:30:28.740Z,9.90
2019-03-31T21:32:57.496Z,9.90
2019-03-31T21:35:26.427Z,9.83
2019-03-31T21:37:55.280Z,9.91
2019-03-31T21:40:24.147Z,9.87
2019-03-31T21:42:52.929Z,9.84
2019-03-31T21:45:21.921Z,9.91
2019-03-31T21:47:50.816Z,9.78
2019-03-31T21:50:19.791Z,9.81
2019-03-31T21:52:48.750Z,9.79
2019-03-31T21:55:17.657Z,9.77
2019-03-31T21:57:46.428Z,9.72
2019-03-31T22:00:18.292Z,9.69
2019-03-31T22:02:47.332Z,9.65
2019-03-31T22:05:16.255Z,9.69
2019-03-31T22:07:45.259Z,9.71
2019-03-31T22:10:14.265Z,9.63
2019-03-31T22:12:43.182Z,9.50
2019-03-31T22:15:12.281Z,9.57
2019-03-31T22:17:41.252Z,9.48
2019-03-31T22:20:10.304Z,9.51
2019-03-31T22:22:39.207Z,9.46
2019-03-31T22:25:08.205Z,9.40
2019-03-31T22:27:37.005Z,9.39
2019-03-31T22:30:06.863Z,9.38
2019-03-31T22:32:35.825Z,9.43
2019-03-31T22:35:04.917Z,9.43
2019-03-31T22:37:33.865Z,9.38
2019-03-31T22:40:02.740Z,9.39
2019-03-31T22:42:31.519Z,9.39
2019-03-31T22:45:00.389Z,9.37
2019-03-31T22:47:29.234Z,9.35
2019-03-31T22:49:58.032Z,9.30
2019-03-31T22:52:26.912Z,9.26
2019-03-31T22:54:55.835Z,9.22
2019-03-31T22:57:24.713Z,9.28
2019-03-31T22:59:53.704Z,9.28
2019-03-31T23:02:22.636Z,9.22
2019-03-31T23:04:51.481Z,9.19
2019-03-31T23:07:20.359Z,9.31
2019-03-31T23:09:49.271Z,9.18
2019-03-31T23:12:18.072Z,9.20
2019-03-31T23:14:46.978Z,9.11
2019-03-31T23:17:15.886Z,9.17
2019-03-31T23:19:44.751Z,9.13
2019-03-31T23:22:13.717Z,9.19
2019-03-31T23:24:42.595Z,9.10
2019-03-31T23:27:11.483Z,9.12
2019-03-31T23:29:40.368Z,9.03
2019-03-31T23:32:09.251Z,9.13
2019-03-31T23:34:38.215Z,9.04
2019-03-31T23:37:06.982Z,9.01
2019-03-31T23:39:38.858Z,9.09
2019-03-31T23:42:07.627Z,9.04
2019-03-31T23:44:36.413Z,9.02
2019-03-31T23:47:05.199Z,8.98
2019-03-31T23:49:34.162Z,8.93
2019-03-31T23:52:02.987Z,8.91
2019-03-31T23:54:31.890Z,8.82
2019-03-31T23:57:00.702Z,8.75
2019-03-31T23:59:29.616Z,8.69
